Latest Weather Observations for Wattamolla

IDN60901

Issued at 6:21 pm EST Sunday 24 September 2017 (issued every 10 minutes, with the page automatically refreshed every 10 minutes)

About weather observations | Map of Sydney area stations | Latest observations for Sydney area | Other Formats
Station Details ID: 066208 Name: WATTAMOLLA AWS Lat: -34.14 Lon: 151.12 Height: 44.0 m
Data from the previous 72 hours. | See also: Recent months for locations in New South Wales
Date/Time
EST
Temp
°C
App
Temp
°C
Dew
Point
°C
Rel
Hum
%
Delta-T
°C
Wind Press
QNH
hPa
Press
MSL
hPa
Rain since
9am
mm
Dir  Spd
km/h
Gust
km/h
Spd
kts
Gust
kts
24/06:00pm - - - - - WNW 20 32 11 17 - - -
24/05:30pm - - - - - WNW 24 41 13 22 - - -
24/05:00pm - - - - - WNW 33 48 18 26 - - -
24/04:52pm - - - - - WNW 28 50 15 27 - - -
24/04:30pm - - - - - WNW 19 30 10 16 - - -
24/04:00pm - - - - - WNW 22 41 12 22 - - -
24/03:39pm - - - - - WNW 28 48 15 26 - - -
24/03:30pm - - - - - WNW 22 41 12 22 - - -
24/03:05pm - - - - - WNW 32 54 17 29 - - -
24/03:00pm - - - - - NW 30 46 16 25 - - -
24/02:39pm - - - - - NW 28 48 15 26 - - -
24/02:30pm - - - - - WNW 26 41 14 22 - - -
24/02:14pm - - - - - WNW 28 50 15 27 - - -
24/02:00pm - - - - - WNW 26 37 14 20 - - -
24/01:30pm - - - - - WNW 19 28 10 15 - - -
24/01:00pm - - - - - W 22 39 12 21 - - -
24/12:30pm - - - - - WNW 28 48 15 26 - - -
24/12:02pm - - - - - WNW 30 48 16 26 - - -
24/12:00pm - - - - - WNW 32 48 17 26 - - -
24/11:35am - - - - - WNW 28 46 15 25 - - -
24/11:30am - - - - - WNW 28 44 15 24 - - -
24/11:19am - - - - - WNW 28 46 15 25 - - -
24/11:00am - - - - - WNW 30 43 16 23 - - -
24/10:43am - - - - - WNW 30 48 16 26 - - -
24/10:30am - - - - - WNW 32 43 17 23 - - -
24/10:15am - - - - - WNW 30 48 16 26 - - -
24/10:00am - - - - - WNW 24 39 13 21 - - -
24/09:37am - - - - - W 20 46 11 25 - - -
24/09:30am - - - - - SSW 9 15 5 8 - - -
24/09:00am - - - - - SSE 9 15 5 8 - - -
24/08:30am - - - - - S 11 13 6 7 - - -
24/08:00am - - - - - SW 13 19 7 10 - - -
24/07:30am - - - - - SW 11 19 6 10 - - -
24/07:00am - - - - - SSW 20 32 11 17 - - -
24/06:30am - - - - - SSW 19 35 10 19 - - -
24/06:00am - - - - - WSW 22 33 12 18 - - -
24/05:30am - - - - - NW 30 50 16 27 - - -
24/05:09am - - - - - NW 28 46 15 25 - - -
24/05:00am - - - - - NW 24 35 13 19 - - -
24/04:30am - - - - - NW 17 22 9 12 - - -
24/04:00am - - - - - NNW 7 13 4 7 - - -
24/03:30am - - - - - N 11 15 6 8 - - -
24/03:00am - - - - - NW 13 17 7 9 - - -
24/02:30am - - - - - N 15 26 8 14 - - -
24/02:00am - - - - - ENE 9 13 5 7 - - -
24/01:30am - - - - - N 9 17 5 9 - - -
24/01:00am - - - - - N 17 24 9 13 - - -
24/12:30am - - - - - N 17 22 9 12 - - -
24/12:00am - - - - - N 20 28 11 15 - - -
 
Date/Time
EST
Temp
°C
App
Temp
°C
Dew
Point
°C
Rel
Hum
%
Delta-T
°C
Wind Press
QNH
hPa
Press
MSL
hPa
Rain since
9am
mm
Dir  Spd
km/h
Gust
km/h
Spd
kts
Gust
kts
23/11:30pm - - - - - N 19 26 10 14 - - -
23/11:00pm - - - - - N 13 26 7 14 - - -
23/10:30pm - - - - - N 15 19 8 10 - - -
23/10:00pm - - - - - N 13 17 7 9 - - -
23/09:30pm - - - - - NNW 17 19 9 10 - - -
23/09:00pm - - - - - N 20 26 11 14 - - -
23/08:30pm - - - - - N 19 24 10 13 - - -
23/08:00pm - - - - - N 24 28 13 15 - - -
23/07:30pm - - - - - N 19 26 10 14 - - -
23/07:00pm - - - - - N 22 26 12 14 - - -
23/06:30pm - - - - - N 20 28 11 15 - - -
23/06:00pm - - - - - N 20 26 11 14 - - -
23/05:30pm - - - - - N 30 39 16 21 - - -
23/05:00pm - - - - - N 30 43 16 23 - - -
23/04:30pm - - - - - N 24 33 13 18 - - -
23/04:00pm - - - - - N 33 41 18 22 - - -
23/03:30pm - - - - - N 30 46 16 25 - - -
23/03:00pm - - - - - NNE 30 48 16 26 - - -
23/02:57pm - - - - - NNE 30 48 16 26 - - -
23/02:30pm - - - - - NNE 20 35 11 19 - - -
23/02:00pm - - - - - N 28 39 15 21 - - -
23/01:30pm - - - - - NNE 24 37 13 20 - - -
23/01:00pm - - - - - N 28 39 15 21 - - -
23/12:30pm - - - - - N 26 37 14 20 - - -
23/12:00pm - - - - - NNW 20 30 11 16 - - -
23/11:30am - - - - - NNW 20 30 11 16 - - -
23/11:00am - - - - - NNW 28 41 15 22 - - -
23/10:30am - - - - - NNW 26 35 14 19 - - -
23/10:00am - - - - - NNW 26 43 14 23 - - -
23/09:30am - - - - - NNW 26 37 14 20 - - -
23/09:00am - - - - - NNW 24 41 13 22 - - -
23/08:30am - - - - - NNW 20 30 11 16 - - -
23/08:00am - - - - - NNW 20 33 11 18 - - -
23/07:30am - - - - - NNW 20 32 11 17 - - -
23/07:00am - - - - - NW 20 30 11 16 - - -
23/06:30am - - - - - NW 24 32 13 17 - - -
23/06:00am - - - - - NW 24 32 13 17 - - -
23/05:30am - - - - - NW 19 30 10 16 - - -
23/05:00am - - - - - NW 22 28 12 15 - - -
23/04:30am - - - - - NW 22 28 12 15 - - -
23/04:00am - - - - - NW 24 30 13 16 - - -
23/03:30am - - - - - NW 22 26 12 14 - - -
23/03:00am - - - - - NW 17 20 9 11 - - -
23/02:30am - - - - - NW 13 17 7 9 - - -
23/02:00am - - - - - WNW 22 26 12 14 - - -
23/01:30am - - - - - NW 13 17 7 9 - - -
23/01:00am - - - - - WNW 4 7 2 4 - - -
23/12:30am - - - - - NE 4 9 2 5 - - -
23/12:00am - - - - - NNW 11 17 6 9 - - -
 
Date/Time
EST
Temp
°C
App
Temp
°C
Dew
Point
°C
Rel
Hum
%
Delta-T
°C
Wind Press
QNH
hPa
Press
MSL
hPa
Rain since
9am
mm
Dir  Spd
km/h
Gust
km/h
Spd
kts
Gust
kts
22/11:30pm - - - - - NNW 13 17 7 9 - - -
22/11:00pm - - - - - N 9 11 5 6 - - -
22/10:30pm - - - - - N 4 9 2 5 - - -
22/10:00pm - - - - - NNW 15 20 8 11 - - -
22/09:30pm - - - - - NNW 19 24 10 13 - - -
22/09:00pm - - - - - N 24 32 13 17 - - -
22/08:30pm - - - - - N 30 35 16 19 - - -
22/08:00pm - - - - - N 32 37 17 20 - - -
22/07:30pm - - - - - N 24 28 13 15 - - -
22/07:00pm - - - - - N 17 26 9 14 - - -
22/06:30pm - - - - - N 19 26 10 14 - - -
22/06:00pm - - - - - N 19 22 10 12 - - -
22/05:30pm - - - - - N 19 26 10 14 - - -
22/05:00pm - - - - - NNE 13 19 7 10 - - -
22/04:30pm - - - - - NNE 13 24 7 13 - - -
22/04:00pm - - - - - NNE 17 26 9 14 - - -
22/03:30pm - - - - - NE 17 26 9 14 - - -
22/03:00pm - - - - - NNE 19 28 10 15 - - -
22/02:30pm - - - - - NE 17 26 9 14 - - -
22/02:00pm - - - - - NE 22 30 12 16 - - -
22/01:30pm - - - - - NE 22 32 12 17 - - -
22/01:00pm - - - - - NNE 9 13 5 7 - - -
22/12:30pm - - - - - N 15 26 8 14 - - -
22/12:00pm - - - - - N 20 30 11 16 - - -
22/11:30am - - - - - NNW 19 26 10 14 - - -
22/11:00am - - - - - NNW 17 26 9 14 - - -
22/10:30am - - - - - NNW 17 26 9 14 - - -
22/10:00am - - - - - NNW 17 24 9 13 - - -
22/09:30am - - - - - N 17 22 9 12 - - -
22/09:00am - - - - - N 7 13 4 7 - - -
22/08:30am - - - - - CALM 0 7 0 4 - - -
22/08:00am - - - - - SSW 9 13 5 7 - - -
22/07:30am - - - - - NW 13 17 7 9 - - -
22/07:00am - - - - - NW 15 17 8 9 - - -
22/06:30am - - - - - WNW 9 13 5 7 - - -
22/06:00am - - - - - NW 11 15 6 8 - - -
22/05:30am - - - - - WNW 17 19 9 10 - - -
22/05:00am - - - - - W 11 15 6 8 - - -
22/04:30am - - - - - NNW 9 13 5 7 - - -
22/04:00am - - - - - W 13 15 7 8 - - -
22/03:30am - - - - - NW 19 24 10 13 - - -
22/03:00am - - - - - WNW 11 15 6 8 - - -
22/02:30am - - - - - NW 13 17 7 9 - - -
22/02:00am - - - - - NW 9 13 5 7 - - -
22/01:30am - - - - - NNW 15 17 8 9 - - -
22/01:00am - - - - - WNW 13 17 7 9 - - -
22/12:30am - - - - - N 11 13 6 7 - - -
22/12:00am - - - - - NNW 15 19 8 10 - - -
 
Date/Time
EST
Temp
°C
App
Temp
°C
Dew
Point
°C
Rel
Hum
%
Delta-T
°C
Wind Press
QNH
hPa
Press
MSL
hPa
Rain since
9am
mm
Dir  Spd
km/h
Gust
km/h
Spd
kts
Gust
kts
21/11:30pm - - - - - NNW 19 20 10 11 - - -
21/11:00pm - - - - - NNW 15 19 8 10 - - -
21/10:30pm - - - - - NNW 13 15 7 8 - - -
21/10:00pm - - - - - NW 15 19 8 10 - - -
21/09:30pm - - - - - NW 13 15 7 8 - - -
21/09:00pm - - - - - W 9 11 5 6 - - -
21/08:30pm - - - - - NNW 15 17 8 9 - - -
21/08:00pm - - - - - N 17 20 9 11 - - -
21/07:30pm - - - - - N 15 17 8 9 - - -
21/07:00pm - - - - - NW 7 9 4 5 - - -
21/06:30pm - - - - - N 13 19 7 10 - - -

Latest Capital City Observations: Canberra | Sydney | Melbourne | Brisbane | Adelaide | Perth | Hobart | Darwin

Other Formats:

Comma delimited format used in spreadsheet applications
http://www.bom.gov.au/fwo/IDN60901/IDN60901.95752.axf

JavaScript Object Notation format (JSON) in row-major order
http://www.bom.gov.au/fwo/IDN60901/IDN60901.95752.json